Time;durP1;ratioP1;P1;durP2;ratioP2;P2;SDS_P1;SDS_P2;PMS_P1;PMS_P2;Temp;Humidity;BMP_temperature;BMP_pressure;BME280_temperature;BME280_humidity;BME280_pressure;Samples;Min_cycle;Max_cycle;Signal;HPM_P1;HPM_P2
2022/10/30 00:01:00;;;;;;;10.23;9.17;;;13.80;99.90;;;;;;6225393;28;20499;-59
2022/10/30 00:04:04;;;;;;;8.27;7.57;;;13.80;99.90;;;;;;6225408;28;20483;-58
2022/10/30 00:07:07;;;;;;;9.60;8.70;;;13.70;99.90;;;;;;6225264;28;20488;-59
2022/10/30 00:10:11;;;;;;;9.67;8.77;;;13.70;99.90;;;;;;6225215;28;20472;-59
2022/10/30 00:13:14;;;;;;;9.63;8.80;;;13.70;99.90;;;;;;6225472;28;20471;-59
2022/10/30 00:16:17;;;;;;;11.70;9.10;;;13.70;99.90;;;;;;6224904;28;20479;-59
2022/10/30 00:19:22;;;;;;;9.43;8.17;;;13.60;99.90;;;;;;6224753;28;20487;-59
2022/10/30 00:22:25;;;;;;;9.10;8.20;;;13.60;99.90;;;;;;6224572;28;20542;-60
2022/10/30 00:25:28;;;;;;;14.30;7.80;;;13.60;99.90;;;;;;6224814;28;20566;-60
2022/10/30 00:28:31;;;;;;;9.47;8.50;;;13.60;99.90;;;;;;6224918;28;20490;-59
2022/10/30 00:31:34;;;;;;;9.60;8.10;;;13.60;99.90;;;;;;6224721;28;20476;-59
2022/10/30 00:34:39;;;;;;;8.47;7.63;;;13.60;99.90;;;;;;6220645;28;20483;-59
2022/10/30 00:37:42;;;;;;;9.03;8.10;;;13.60;99.90;;;;;;6224574;28;20488;-59
2022/10/30 00:40:45;;;;;;;9.17;8.27;;;13.60;99.90;;;;;;6224772;28;20483;-59
2022/10/30 00:43:49;;;;;;;9.17;7.50;;;13.60;99.90;;;;;;6224675;28;20474;-60
2022/10/30 00:46:52;;;;;;;13.07;8.50;;;13.60;99.90;;;;;;6224525;28;20484;-59
2022/10/30 00:50:03;;;;;;;8.53;7.90;;;13.60;99.90;;;;;;6224525;28;20467;-59
2022/10/30 00:53:10;;;;;;;9.43;8.60;;;13.70;99.90;;;;;;6224610;28;20479;-59
2022/10/30 00:56:17;;;;;;;9.17;8.33;;;13.70;99.90;;;;;;6225109;28;20479;-59
2022/10/30 00:59:26;;;;;;;9.70;8.80;;;13.80;99.90;;;;;;6224628;28;20896;-59
2022/10/30 01:02:29;;;;;;;9.60;8.70;;;13.70;99.90;;;;;;6224316;28;20512;-58
2022/10/30 01:05:35;;;;;;;10.93;9.90;;;13.70;99.90;;;;;;6224300;28;20526;-59
2022/10/30 01:08:38;;;;;;;13.43;11.50;;;13.70;99.90;;;;;;6224114;28;20484;-59
2022/10/30 01:11:42;;;;;;;14.07;12.87;;;13.70;99.90;;;;;;6224284;28;20818;-59
2022/10/30 01:14:49;;;;;;;14.30;13.20;;;13.70;99.90;;;;;;6224398;28;20475;-61
2022/10/30 01:18:12;;;;;;;13.00;11.60;;;13.60;99.90;;;;;;6224301;28;20555;-58
2022/10/30 01:21:31;;;;;;;11.20;10.20;;;13.60;99.90;;;;;;6224137;28;20954;-61
2022/10/30 01:24:49;;;;;;;10.37;9.30;;;13.60;99.90;;;;;;6224564;28;20768;-60
2022/10/30 01:27:59;;;;;;;9.60;8.60;;;13.50;99.90;;;;;;6224184;28;20487;-58
2022/10/30 01:31:16;;;;;;;12.63;9.07;;;13.50;99.90;;;;;;6226652;28;20471;-58
2022/10/30 01:34:25;;;;;;;11.03;8.57;;;13.50;99.90;;;;;;6225838;28;20472;-58
2022/10/30 01:37:35;;;;;;;9.87;8.87;;;13.50;99.90;;;;;;6219784;28;20483;-58
2022/10/30 01:40:38;;;;;;;9.43;8.57;;;13.40;99.90;;;;;;6228815;28;20490;-60
2022/10/30 01:43:43;;;;;;;9.23;8.33;;;13.40;99.90;;;;;;6228449;28;20809;-58
2022/10/30 01:46:59;;;;;;;8.73;8.00;;;13.40;99.90;;;;;;6228253;28;20525;-60
2022/10/30 01:50:23;;;;;;;10.67;8.13;;;13.40;99.90;;;;;;6228467;28;20475;-58
2022/10/30 01:53:42;;;;;;;8.97;8.00;;;13.40;99.90;;;;;;6228527;28;20785;-61
2022/10/30 01:56:54;;;;;;;8.60;7.80;;;13.40;99.90;;;;;;6228589;28;20468;-61
2022/10/30 02:00:02;;;;;;;10.10;8.77;;;13.40;99.90;;;;;;6228749;28;20464;-61
2022/10/30 02:03:05;;;;;;;14.97;12.70;;;13.30;99.90;;;;;;6228193;28;20841;-60
2022/10/30 02:06:08;;;;;;;9.97;9.07;;;13.30;99.90;;;;;;6228539;28;20483;-57
2022/10/30 02:09:15;;;;;;;10.53;9.37;;;13.30;99.90;;;;;;6228350;28;20479;-61
2022/10/30 02:12:19;;;;;;;11.60;8.20;;;13.20;99.90;;;;;;6228166;28;20784;-58
2022/10/30 02:15:23;;;;;;;10.07;8.40;;;13.30;99.90;;;;;;6228004;28;20559;-59
2022/10/30 02:18:26;;;;;;;9.93;9.00;;;13.30;99.90;;;;;;6228013;28;20471;-60
2022/10/30 02:21:31;;;;;;;10.27;9.27;;;13.20;99.90;;;;;;6227682;28;20476;-61
2022/10/30 02:24:34;;;;;;;9.57;8.40;;;13.20;99.90;;;;;;6227923;28;20985;-61
2022/10/30 02:27:38;;;;;;;10.70;8.07;;;13.20;99.90;;;;;;6227525;28;20595;-62
2022/10/30 02:30:42;;;;;;;10.17;9.00;;;13.10;99.90;;;;;;6227564;28;20526;-61
2022/10/30 02:33:46;;;;;;;9.30;8.50;;;13.10;99.90;;;;;;6227368;28;20474;-61
2022/10/30 02:36:51;;;;;;;10.23;9.17;;;13.00;99.90;;;;;;6227089;28;20479;-61
2022/10/30 02:39:54;;;;;;;13.90;9.00;;;13.00;99.90;;;;;;6219149;28;20468;-61
2022/10/30 02:42:58;;;;;;;10.23;9.33;;;13.00;99.90;;;;;;6227184;28;20818;-61
2022/10/30 02:46:01;;;;;;;10.70;9.13;;;13.00;99.90;;;;;;6226711;28;20480;-59
2022/10/30 02:49:04;;;;;;;9.50;8.60;;;13.00;99.90;;;;;;6227145;28;20531;-61
2022/10/30 02:52:09;;;;;;;10.40;9.40;;;13.00;99.90;;;;;;6227342;28;20522;-60
2022/10/30 02:55:12;;;;;;;9.90;8.87;;;12.90;99.90;;;;;;6227098;28;20475;-60
2022/10/30 02:58:15;;;;;;;9.73;8.83;;;12.90;99.90;;;;;;6226703;28;20495;-59
2022/10/30 03:01:19;;;;;;;12.17;11.07;;;12.90;99.90;;;;;;6226536;28;21039;-58
2022/10/30 03:04:23;;;;;;;12.10;10.90;;;12.80;99.90;;;;;;6226274;28;20869;-61
2022/10/30 03:07:27;;;;;;;12.77;11.50;;;12.70;99.90;;;;;;6226397;28;20946;-62
2022/10/30 03:10:30;;;;;;;11.43;10.53;;;12.70;99.90;;;;;;6226952;28;20487;-62
2022/10/30 03:13:35;;;;;;;11.97;10.77;;;12.60;99.90;;;;;;6226568;28;20791;-61
2022/10/30 03:16:38;;;;;;;13.13;10.23;;;12.60;99.90;;;;;;6226670;28;20778;-61
2022/10/30 03:19:41;;;;;;;10.57;9.50;;;12.60;99.90;;;;;;6226413;28;20814;-61
2022/10/30 03:22:46;;;;;;;9.13;8.23;;;12.50;99.90;;;;;;6226269;28;20483;-61
2022/10/30 03:25:52;;;;;;;9.77;8.97;;;12.60;99.90;;;;;;6226131;28;20550;-61
2022/10/30 03:28:55;;;;;;;10.67;9.70;;;12.50;99.90;;;;;;6225919;28;20488;-61
2022/10/30 03:31:58;;;;;;;10.63;9.73;;;12.50;99.90;;;;;;6226091;28;20545;-61
2022/10/30 03:35:01;;;;;;;10.97;9.83;;;12.40;99.90;;;;;;6226257;28;20483;-61
2022/10/30 03:38:06;;;;;;;10.40;9.50;;;12.40;99.90;;;;;;6226088;28;20479;-59
2022/10/30 03:41:09;;;;;;;10.40;9.40;;;12.40;99.90;;;;;;6227592;28;21006;-58
2022/10/30 03:44:12;;;;;;;10.70;8.80;;;12.40;99.90;;;;;;6226850;28;20476;-58
2022/10/30 03:47:15;;;;;;;10.50;9.50;;;12.40;99.90;;;;;;6225424;28;20480;-59
2022/10/30 03:50:18;;;;;;;12.67;8.57;;;12.40;99.90;;;;;;6226113;28;20459;-60
2022/10/30 03:53:25;;;;;;;8.83;8.10;;;12.40;99.90;;;;;;6225704;28;20752;-60
2022/10/30 03:56:28;;;;;;;10.50;9.50;;;12.30;99.90;;;;;;6225577;28;20464;-58
2022/10/30 03:59:31;;;;;;;11.77;8.97;;;12.30;99.90;;;;;;6225235;28;20510;-60
2022/10/30 04:02:34;;;;;;;10.47;9.43;;;12.40;99.90;;;;;;6225655;28;20538;-57
2022/10/30 04:05:38;;;;;;;12.30;8.80;;;12.40;99.90;;;;;;6225356;28;20797;-61
2022/10/30 04:08:43;;;;;;;11.10;8.77;;;12.30;99.90;;;;;;6225055;28;20480;-57
2022/10/30 04:11:46;;;;;;;9.50;8.60;;;12.30;99.90;;;;;;6225139;28;20479;-60
2022/10/30 04:14:49;;;;;;;9.70;8.80;;;12.30;99.90;;;;;;6225200;28;20483;-60
2022/10/30 04:17:52;;;;;;;9.30;8.40;;;12.30;99.90;;;;;;6225241;28;20506;-60
2022/10/30 04:20:56;;;;;;;11.63;9.20;;;12.30;99.90;;;;;;6225594;28;20460;-60
2022/10/30 04:24:00;;;;;;;9.07;8.27;;;12.30;99.90;;;;;;6224947;28;20820;-61
2022/10/30 04:27:03;;;;;;;9.63;8.20;;;12.30;99.90;;;;;;6224780;28;20484;-60
2022/10/30 04:30:08;;;;;;;9.70;8.70;;;12.30;99.90;;;;;;6224997;28;20480;-60
2022/10/30 04:33:13;;;;;;;10.03;8.77;;;12.30;99.90;;;;;;6226809;28;20534;-61
2022/10/30 04:36:17;;;;;;;10.10;9.00;;;12.30;99.90;;;;;;6225849;28;20795;-57
2022/10/30 04:39:22;;;;;;;11.80;8.60;;;12.20;99.90;;;;;;6224703;28;20502;-61
2022/10/30 04:42:25;;;;;;;9.07;8.17;;;12.20;99.90;;;;;;6225190;28;20526;-60
2022/10/30 04:45:28;;;;;;;9.90;9.00;;;12.10;99.90;;;;;;6215943;28;20468;-58
2022/10/30 04:48:33;;;;;;;9.43;8.53;;;12.10;99.90;;;;;;6224890;28;20476;-58
2022/10/30 04:51:37;;;;;;;9.67;8.77;;;12.00;99.90;;;;;;6224898;28;20483;-57
2022/10/30 04:54:41;;;;;;;8.20;7.43;;;12.00;99.90;;;;;;6224601;28;20483;-58
2022/10/30 04:57:44;;;;;;;9.23;8.40;;;12.00;99.90;;;;;;6224862;28;20506;-60
2022/10/30 05:00:47;;;;;;;10.07;9.07;;;12.00;99.90;;;;;;6224581;28;20491;-58
2022/10/30 05:03:50;;;;;;;11.00;9.07;;;11.90;99.90;;;;;;6224810;28;20476;-58
2022/10/30 05:06:56;;;;;;;9.53;8.50;;;11.90;99.90;;;;;;6224562;28;20483;-58
2022/10/30 05:10:01;;;;;;;10.50;9.03;;;11.80;99.90;;;;;;6227481;28;20896;-58
2022/10/30 05:13:04;;;;;;;11.00;10.00;;;11.90;99.90;;;;;;6229556;28;20472;-60
2022/10/30 05:16:08;;;;;;;11.03;10.03;;;11.80;99.90;;;;;;6229335;28;20972;-58
2022/10/30 05:19:11;;;;;;;10.80;10.00;;;11.80;99.90;;;;;;6229199;28;20510;-58
2022/10/30 05:22:14;;;;;;;12.63;11.33;;;11.80;99.90;;;;;;6229229;28;20476;-58
2022/10/30 05:25:19;;;;;;;10.97;9.87;;;11.70;99.90;;;;;;6229233;28;20852;-59
2022/10/30 05:28:22;;;;;;;10.87;9.87;;;11.70;99.90;;;;;;6229177;28;20585;-59
2022/10/30 05:31:25;;;;;;;12.70;11.03;;;11.70;99.90;;;;;;6229239;28;20479;-59
2022/10/30 05:34:28;;;;;;;11.10;10.10;;;11.70;99.90;;;;;;6228909;28;20981;-60
2022/10/30 05:37:31;;;;;;;11.03;10.03;;;11.70;99.90;;;;;;6228936;28;20525;-58
2022/10/30 05:40:36;;;;;;;11.50;10.50;;;11.70;99.90;;;;;;6228854;28;20853;-60
2022/10/30 05:43:39;;;;;;;11.60;10.57;;;11.70;99.90;;;;;;6228901;28;20594;-58
2022/10/30 05:46:42;;;;;;;12.40;11.20;;;11.60;99.90;;;;;;6228593;28;20557;-58
2022/10/30 05:49:45;;;;;;;11.40;10.20;;;11.60;99.90;;;;;;6229650;28;20475;-60
2022/10/30 05:52:48;;;;;;;12.20;11.03;;;11.60;99.90;;;;;;6234156;28;20513;-60
2022/10/30 05:55:56;;;;;;;11.10;10.00;;;11.70;99.90;;;;;;6228448;28;20668;-60
2022/10/30 05:58:59;;;;;;;10.67;9.57;;;11.70;99.90;;;;;;6228594;28;20569;-60
2022/10/30 06:02:02;;;;;;;10.90;9.60;;;11.70;99.90;;;;;;6228023;28;20483;-60
2022/10/30 06:05:06;;;;;;;10.77;9.87;;;11.70;99.90;;;;;;6227945;28;20965;-60
2022/10/30 06:08:09;;;;;;;11.07;10.07;;;11.70;99.90;;;;;;6228206;28;20945;-60
2022/10/30 06:11:13;;;;;;;10.57;9.67;;;11.60;99.90;;;;;;6228455;28;20833;-61
2022/10/30 06:14:17;;;;;;;10.67;9.67;;;11.60;99.90;;;;;;6228264;28;20526;-60
2022/10/30 06:17:20;;;;;;;10.27;9.30;;;11.70;99.90;;;;;;6228365;28;20483;-60
2022/10/30 06:20:25;;;;;;;11.33;8.77;;;11.70;99.90;;;;;;6227524;28;20467;-60
2022/10/30 06:23:28;;;;;;;10.60;9.60;;;11.70;99.90;;;;;;6229094;28;20497;-61
2022/10/30 06:26:33;;;;;;;8.60;7.90;;;11.90;99.90;;;;;;6232151;28;20499;-60
2022/10/30 06:29:36;;;;;;;8.17;7.37;;;11.90;99.90;;;;;;6230124;28;20464;-60
2022/10/30 06:32:39;;;;;;;7.30;6.30;;;12.00;99.90;;;;;;6227853;28;20471;-60
2022/10/30 06:35:42;;;;;;;8.07;5.67;;;12.10;99.90;;;;;;6227785;28;20468;-60
2022/10/30 06:38:45;;;;;;;9.73;6.40;;;12.20;99.90;;;;;;6227667;28;20483;-60
2022/10/30 06:41:52;;;;;;;9.33;6.00;;;12.30;99.90;;;;;;6227295;28;20995;-60
2022/10/30 06:44:56;;;;;;;8.13;5.90;;;12.40;99.90;;;;;;6227237;28;20767;-60
2022/10/30 06:48:00;;;;;;;7.00;6.40;;;12.50;99.90;;;;;;6226941;28;20530;-60
2022/10/30 06:51:04;;;;;;;8.07;6.67;;;12.60;99.90;;;;;;6226932;28;20463;-60
2022/10/30 06:54:07;;;;;;;8.00;7.20;;;12.60;99.90;;;;;;6227018;28;20475;-60
2022/10/30 06:57:13;;;;;;;10.90;9.57;;;12.70;99.90;;;;;;6226623;28;20869;-60
2022/10/30 07:00:17;;;;;;;11.97;10.67;;;12.80;99.90;;;;;;6226724;28;20878;-60
2022/10/30 07:03:21;;;;;;;8.93;8.17;;;12.80;99.90;;;;;;6226756;28;20512;-60
2022/10/30 07:06:24;;;;;;;8.93;8.13;;;12.90;99.90;;;;;;6226523;28;20754;-61
2022/10/30 07:09:27;;;;;;;9.90;9.00;;;13.00;99.90;;;;;;6227049;28;20498;-61
2022/10/30 07:12:31;;;;;;;9.13;8.40;;;13.10;99.90;;;;;;6226826;28;20546;-61
2022/10/30 07:15:35;;;;;;;10.33;9.43;;;13.20;99.90;;;;;;6226853;28;21015;-60
2022/10/30 07:18:38;;;;;;;9.13;8.30;;;13.30;99.90;;;;;;6226656;28;20548;-60
2022/10/30 07:21:41;;;;;;;9.73;9.03;;;13.40;99.90;;;;;;6226670;28;20852;-61
2022/10/30 07:24:44;;;;;;;8.90;8.30;;;13.40;99.90;;;;;;6226371;28;20476;-61
2022/10/30 07:27:50;;;;;;;8.57;7.80;;;13.40;99.90;;;;;;6226111;28;20506;-60
2022/10/30 07:30:53;;;;;;;11.70;10.60;;;13.50;99.90;;;;;;6226729;28;20468;-60
2022/10/30 07:33:56;;;;;;;9.20;8.43;;;13.50;99.90;;;;;;6226566;28;20487;-60
2022/10/30 07:37:00;;;;;;;10.60;9.60;;;13.60;99.90;;;;;;6215746;28;20480;-61
2022/10/30 07:40:03;;;;;;;10.70;9.63;;;13.60;99.90;;;;;;6202298;28;20557;-61
2022/10/30 07:43:15;;;;;;;10.13;9.23;;;13.80;99.90;;;;;;6202766;28;20792;-62
2022/10/30 07:46:18;;;;;;;11.73;10.53;;;13.90;99.90;;;;;;6202133;28;20489;-61
2022/10/30 07:49:21;;;;;;;11.20;10.30;;;14.00;99.90;;;;;;6201833;28;20860;-62
2022/10/30 07:52:25;;;;;;;10.53;9.63;;;14.20;99.90;;;;;;6201432;28;20481;-62
2022/10/30 07:55:28;;;;;;;9.97;9.23;;;14.40;99.90;;;;;;6196595;28;20479;-60
2022/10/30 07:58:32;;;;;;;11.13;9.43;;;14.50;99.90;;;;;;6201783;28;20620;-60
2022/10/30 08:01:35;;;;;;;10.33;9.43;;;14.70;99.90;;;;;;6201529;28;20473;-61
2022/10/30 08:04:39;;;;;;;10.10;9.33;;;14.90;99.90;;;;;;6202819;28;20632;-60
2022/10/30 08:07:42;;;;;;;10.30;9.40;;;15.10;99.90;;;;;;6208542;28;20473;-60
2022/10/30 08:10:45;;;;;;;9.50;8.80;;;15.20;99.90;;;;;;6220858;28;20476;-60
2022/10/30 08:13:49;;;;;;;10.40;8.87;;;15.30;99.90;;;;;;6226138;28;20484;-61
2022/10/30 08:16:52;;;;;;;9.80;8.90;;;15.30;99.90;;;;;;6225588;28;20484;-60
2022/10/30 08:19:56;;;;;;;8.60;7.90;;;15.40;99.90;;;;;;6225863;28;20953;-60
2022/10/30 08:22:59;;;;;;;8.40;7.60;;;15.50;99.90;;;;;;6226642;28;20472;-61
2022/10/30 08:26:04;;;;;;;8.27;7.57;;;15.70;99.90;;;;;;6240228;28;20488;-60
2022/10/30 08:29:08;;;;;;;8.57;7.97;;;16.00;99.90;;;;;;6242164;28;20478;-61
2022/10/30 08:32:12;;;;;;;8.00;7.40;;;16.30;99.90;;;;;;6244382;28;20478;-61
2022/10/30 08:35:15;;;;;;;8.23;7.53;;;16.40;99.90;;;;;;6225403;28;20520;-61
2022/10/30 08:38:22;;;;;;;9.33;8.63;;;16.80;99.90;;;;;;6226607;28;20464;-62
2022/10/30 08:41:25;;;;;;;9.23;8.53;;;17.10;99.90;;;;;;6237224;28;20439;-62
2022/10/30 08:44:30;;;;;;;7.87;7.27;;;17.30;99.90;;;;;;6249218;28;20809;-63
2022/10/30 08:47:34;;;;;;;9.10;8.30;;;17.50;99.90;;;;;;6249355;28;20541;-62
2022/10/30 08:50:37;;;;;;;9.00;7.50;;;17.90;99.90;;;;;;6249841;28;20458;-62
2022/10/30 08:53:40;;;;;;;8.57;7.87;;;18.90;99.90;;;;;;6249367;28;20235;-61
2022/10/30 08:56:43;;;;;;;8.90;8.20;;;21.10;99.90;;;;;;6249873;28;20247;-62
2022/10/30 08:59:48;;;;;;;9.03;8.13;;;24.40;96.60;;;;;;6214967;28;20286;-62
2022/10/30 09:02:51;;;;;;;8.63;7.93;;;27.10;89.00;;;;;;6225077;28;20243;-62
2022/10/30 09:05:54;;;;;;;9.10;8.30;;;30.10;69.70;;;;;;6224909;28;20310;-62
2022/10/30 09:08:57;;;;;;;8.73;8.13;;;31.40;57.50;;;;;;6224634;28;20696;-62
2022/10/30 09:12:00;;;;;;;10.30;9.30;;;30.30;55.40;;;;;;6224858;28;20261;-62
2022/10/30 09:15:06;;;;;;;9.40;8.60;;;28.90;56.70;;;;;;6224800;28;20550;-61
2022/10/30 09:18:10;;;;;;;9.43;8.70;;;27.60;58.80;;;;;;6224810;28;20591;-61
2022/10/30 09:21:13;;;;;;;9.30;8.50;;;26.50;62.30;;;;;;6224903;28;20235;-61
2022/10/30 09:24:16;;;;;;;8.83;7.93;;;26.80;65.00;;;;;;6224923;28;20220;-61
2022/10/30 09:27:19;;;;;;;8.87;8.00;;;29.80;58.40;;;;;;6224534;28;20626;-61
2022/10/30 09:30:24;;;;;;;7.82;6.95;;;33.00;51.40;;;;;;6224707;28;20232;-62
2022/10/30 09:33:28;;;;;;;8.23;7.43;;;35.70;44.60;;;;;;6241901;28;20239;-61
2022/10/30 09:36:31;;;;;;;8.40;7.57;;;37.60;38.40;;;;;;6248774;28;20241;-60
2022/10/30 09:39:35;;;;;;;9.50;7.25;;;38.90;34.40;;;;;;6248637;28;20237;-61
2022/10/30 09:42:43;;;;;;;7.68;6.80;;;40.00;31.80;;;;;;6248938;28;20256;-61
2022/10/30 09:46:19;;;;;;;8.23;7.53;;;41.20;30.00;;;;;;6248538;28;20235;-61
2022/10/30 09:49:43;;;;;;;7.63;6.97;;;42.30;28.20;;;;;;6248747;28;20259;-61
2022/10/30 09:52:53;;;;;;;8.43;7.60;;;43.30;26.90;;;;;;6248779;28;20227;-61
2022/10/30 09:56:04;;;;;;;10.27;6.32;;;44.10;25.50;;;;;;6249712;28;20238;-61
2022/10/30 09:59:15;;;;;;;8.57;7.68;;;44.20;24.40;;;;;;6252845;28;20229;-61
2022/10/30 10:02:33;;;;;;;7.90;6.43;;;44.70;24.00;;;;;;6253103;28;20269;-61
2022/10/30 10:05:44;;;;;;;6.55;5.72;;;45.10;23.30;;;;;;6253233;28;20269;-62
2022/10/30 10:08:52;;;;;;;8.10;7.30;;;45.70;23.10;;;;;;6253060;28;20274;-61
2022/10/30 10:11:59;;;;;;;7.82;6.65;;;45.90;22.50;;;;;;6252736;28;20712;-64
2022/10/30 10:15:11;;;;;;;8.43;6.50;;;46.50;22.10;;;;;;6253001;28;20227;-62
2022/10/30 10:18:23;;;;;;;7.10;5.90;;;46.90;21.40;;;;;;6252762;28;20238;-62
2022/10/30 10:21:28;;;;;;;7.85;6.85;;;47.10;20.90;;;;;;6253134;28;20313;-62
2022/10/30 10:24:35;;;;;;;8.23;6.18;;;47.10;20.80;;;;;;6257976;28;20537;-62
2022/10/30 10:27:57;;;;;;;6.50;5.90;;;47.40;20.80;;;;;;6252471;28;20227;-62
2022/10/30 10:31:12;;;;;;;9.90;5.70;;;48.00;20.20;;;;;;6252296;28;20243;-63
2022/10/30 10:34:33;;;;;;;9.52;6.05;;;48.40;19.90;;;;;;6228376;28;20244;-62
2022/10/30 10:37:47;;;;;;;9.90;6.35;;;48.60;19.70;;;;;;6227779;28;20237;-61
2022/10/30 10:41:00;;;;;;;8.05;6.05;;;48.70;19.10;;;;;;6227574;28;20585;-62
2022/10/30 10:44:21;;;;;;;6.70;5.45;;;48.60;19.10;;;;;;6227489;28;20670;-62
2022/10/30 10:47:49;;;;;;;5.93;5.22;;;48.70;18.90;;;;;;6226964;28;20240;-62
2022/10/30 10:51:01;;;;;;;7.57;5.80;;;49.00;18.60;;;;;;6227349;28;20231;-62
2022/10/30 10:54:10;;;;;;;8.02;5.45;;;49.50;18.30;;;;;;6227798;28;20237;-62
2022/10/30 10:57:20;;;;;;;9.82;6.05;;;49.80;17.60;;;;;;6235982;28;20695;-62
2022/10/30 11:00:31;;;;;;;10.40;6.28;;;50.20;17.50;;;;;;6234350;28;20532;-62
2022/10/30 11:03:44;;;;;;;7.75;6.05;;;50.20;17.10;;;;;;6219962;28;20290;-62
2022/10/30 11:06:51;;;;;;;7.85;6.07;;;49.70;17.50;;;;;;6226695;28;20232;-62
2022/10/30 11:09:56;;;;;;;7.18;5.70;;;48.60;18.00;;;;;;6227248;28;20238;-62
2022/10/30 11:13:00;;;;;;;9.10;5.93;;;48.80;18.10;;;;;;6226601;28;20657;-63
2022/10/30 11:16:13;;;;;;;8.43;6.93;;;49.30;17.90;;;;;;6226822;28;20289;-62
2022/10/30 11:19:16;;;;;;;11.23;6.57;;;49.40;17.70;;;;;;6226527;28;20324;-63
2022/10/30 11:22:27;;;;;;;8.02;5.47;;;50.00;17.50;;;;;;6226589;28;20294;-62
2022/10/30 11:25:35;;;;;;;7.30;6.60;;;50.20;17.30;;;;;;6226723;28;20238;-62
2022/10/30 11:28:49;;;;;;;6.78;5.95;;;50.80;17.10;;;;;;6226272;28;20243;-63
2022/10/30 11:32:03;;;;;;;8.15;5.53;;;51.30;16.80;;;;;;6230997;28;20241;-62
2022/10/30 11:35:13;;;;;;;7.88;6.15;;;50.90;16.50;;;;;;6250974;28;20246;-62
2022/10/30 11:38:20;;;;;;;8.05;5.20;;;50.70;16.60;;;;;;6250441;28;20227;-62
2022/10/30 11:41:23;;;;;;;11.10;5.88;;;50.70;16.60;;;;;;6250763;28;20218;-61
2022/10/30 11:44:31;;;;;;;7.38;6.47;;;50.20;16.70;;;;;;6250702;28;20203;-62
2022/10/30 11:47:37;;;;;;;7.38;6.10;;;50.20;16.90;;;;;;6250395;28;20253;-61
2022/10/30 11:50:47;;;;;;;8.30;6.50;;;50.80;16.70;;;;;;6250750;28;20553;-61
2022/10/30 11:53:52;;;;;;;7.13;5.65;;;51.20;16.50;;;;;;6251076;28;20234;-61
2022/10/30 11:56:56;;;;;;;8.07;6.30;;;51.70;16.20;;;;;;6250604;28;20228;-61
2022/10/30 12:00:00;;;;;;;9.43;5.93;;;51.80;16.00;;;;;;6250465;28;20684;-61
2022/10/30 12:03:28;;;;;;;6.57;5.43;;;51.80;15.60;;;;;;6250593;28;20692;-60
2022/10/30 12:06:31;;;;;;;7.18;4.95;;;51.80;15.40;;;;;;6245562;28;20235;-61
2022/10/30 12:09:43;;;;;;;7.90;5.88;;;51.80;15.50;;;;;;6250421;28;20239;-61
2022/10/30 12:12:51;;;;;;;9.27;6.28;;;52.10;15.50;;;;;;6250467;28;20330;-62
2022/10/30 12:16:07;;;;;;;9.15;5.65;;;51.70;15.30;;;;;;6250666;28;20568;-62
2022/10/30 12:19:14;;;;;;;8.30;5.38;;;51.70;15.30;;;;;;6249960;28;20231;-61
2022/10/30 12:22:32;;;;;;;11.95;5.07;;;51.40;15.00;;;;;;6250725;28;20235;-62
2022/10/30 12:25:37;;;;;;;7.63;5.65;;;50.70;15.50;;;;;;6230600;28;20371;-61
2022/10/30 12:28:47;;;;;;;11.73;5.50;;;50.10;15.90;;;;;;6223065;28;20266;-61
2022/10/30 12:31:55;;;;;;;8.50;5.65;;;50.20;16.00;;;;;;6229322;28;20238;-61
2022/10/30 12:35:03;;;;;;;8.13;5.40;;;49.90;15.40;;;;;;6249532;28;20548;-61
2022/10/30 12:38:15;;;;;;;10.70;6.15;;;49.30;15.90;;;;;;6249930;28;20228;-60
2022/10/30 12:41:23;;;;;;;11.45;5.78;;;48.40;16.50;;;;;;6249042;28;20224;-60
2022/10/30 12:44:30;;;;;;;12.10;5.28;;;47.60;17.20;;;;;;6249161;28;20219;-61
2022/10/30 12:47:39;;;;;;;9.05;5.50;;;47.70;17.00;;;;;;6248856;28;20300;-60
2022/10/30 12:50:48;;;;;;;6.72;4.63;;;47.50;17.20;;;;;;6249247;28;20293;-60
2022/10/30 12:53:59;;;;;;;11.93;5.30;;;47.10;17.80;;;;;;6249252;28;20509;-60
2022/10/30 12:57:10;;;;;;;10.15;5.22;;;46.50;18.20;;;;;;6248980;28;20592;-61
2022/10/30 13:00:16;;;;;;;8.90;5.55;;;45.90;18.70;;;;;;6249359;28;20231;-60
2022/10/30 13:03:30;;;;;;;9.20;5.28;;;45.30;19.30;;;;;;6249049;28;20707;-60
2022/10/30 13:06:39;;;;;;;10.38;5.65;;;44.90;19.40;;;;;;6249709;28;20230;-60
2022/10/30 13:09:48;;;;;;;9.40;4.72;;;44.60;20.00;;;;;;6249216;28;20234;-60
2022/10/30 13:13:00;;;;;;;11.35;5.43;;;44.60;20.20;;;;;;6249086;28;20233;-60
2022/10/30 13:16:10;;;;;;;9.38;5.85;;;44.20;20.50;;;;;;6249167;28;20228;-60
2022/10/30 13:19:14;;;;;;;10.85;6.22;;;43.50;21.50;;;;;;6248789;28;20241;-60
2022/10/30 13:22:23;;;;;;;11.57;6.15;;;42.60;21.80;;;;;;6248967;28;20237;-59
2022/10/30 13:25:32;;;;;;;9.35;5.47;;;41.90;22.50;;;;;;6249132;28;20229;-60
2022/10/30 13:28:41;;;;;;;7.97;5.88;;;41.50;22.90;;;;;;6250039;28;20243;-60
2022/10/30 13:31:58;;;;;;;10.73;5.35;;;40.40;23.80;;;;;;6249471;28;20231;-59
2022/10/30 13:35:14;;;;;;;8.85;5.88;;;39.60;24.50;;;;;;6228878;28;20684;-60
2022/10/30 13:38:35;;;;;;;9.43;6.25;;;38.90;25.50;;;;;;6228486;28;20321;-60
2022/10/30 13:41:45;;;;;;;11.20;6.45;;;37.90;26.70;;;;;;6229152;28;20233;-61
2022/10/30 13:45:00;;;;;;;9.43;6.18;;;36.90;27.70;;;;;;6229708;28;20230;-60
2022/10/30 13:48:13;;;;;;;9.13;6.05;;;35.70;28.80;;;;;;6228892;28;20260;-60
2022/10/30 13:51:32;;;;;;;10.50;8.35;;;34.40;30.30;;;;;;6229288;28;20248;-63
2022/10/30 13:54:39;;;;;;;10.88;5.90;;;33.20;32.50;;;;;;6228961;28;20540;-62
2022/10/30 13:57:47;;;;;;;10.90;6.15;;;32.10;34.30;;;;;;6229035;28;20232;-62
2022/10/30 14:00:59;;;;;;;8.85;6.63;;;31.00;36.80;;;;;;6228838;28;20232;-62
2022/10/30 14:04:06;;;;;;;13.10;7.38;;;30.10;39.10;;;;;;6228533;28;20250;-62
2022/10/30 14:07:21;;;;;;;13.33;7.40;;;29.50;41.40;;;;;;6228041;28;20333;-62
2022/10/30 14:10:40;;;;;;;10.57;7.07;;;28.80;43.40;;;;;;6228324;28;20224;-62
2022/10/30 14:13:53;;;;;;;12.17;6.80;;;28.10;45.10;;;;;;6223954;28;20236;-62
2022/10/30 14:17:13;;;;;;;8.53;6.60;;;27.30;47.00;;;;;;6228040;28;20240;-61
2022/10/30 14:20:27;;;;;;;10.13;6.70;;;27.00;48.10;;;;;;6229200;28;20303;-63
2022/10/30 14:23:34;;;;;;;16.17;7.20;;;26.80;48.80;;;;;;6228718;28;20216;-61
2022/10/30 14:26:38;;;;;;;8.30;6.50;;;26.60;49.10;;;;;;6227965;28;20748;-62
2022/10/30 14:29:48;;;;;;;9.57;6.50;;;26.30;50.30;;;;;;6228169;28;20236;-63
2022/10/30 14:32:53;;;;;;;8.77;6.10;;;26.00;50.80;;;;;;6227579;28;20689;-63
2022/10/30 14:36:18;;;;;;;6.77;6.00;;;25.90;51.30;;;;;;6227252;28;20228;-62
2022/10/30 14:39:28;;;;;;;10.60;6.73;;;25.60;51.50;;;;;;6227673;28;20670;-62
2022/10/30 14:42:39;;;;;;;12.97;6.93;;;25.30;51.70;;;;;;6226733;28;20236;-60
2022/10/30 14:45:48;;;;;;;10.33;6.50;;;25.10;52.40;;;;;;6227255;28;20236;-60
2022/10/30 14:49:01;;;;;;;12.27;6.40;;;24.70;52.90;;;;;;6227255;28;20287;-60
2022/10/30 14:52:15;;;;;;;9.93;5.80;;;24.60;53.40;;;;;;6227143;28;20244;-61
2022/10/30 14:55:32;;;;;;;7.93;6.00;;;24.40;53.10;;;;;;6227124;28;20697;-61
2022/10/30 14:58:37;;;;;;;9.43;5.23;;;24.30;53.50;;;;;;6227258;28;20229;-62
2022/10/30 15:01:48;;;;;;;10.23;6.17;;;24.20;53.60;;;;;;6227027;28;20244;-62
2022/10/30 15:05:26;;;;;;;7.70;5.90;;;24.10;54.10;;;;;;6227126;28;20241;-62
2022/10/30 15:08:46;;;;;;;11.67;7.00;;;24.00;54.60;;;;;;6226811;28;20295;-63
2022/10/30 15:12:07;;;;;;;8.50;6.07;;;23.90;55.20;;;;;;6226838;28;20558;-60
2022/10/30 15:15:14;;;;;;;7.73;6.40;;;23.80;55.70;;;;;;6216761;28;20233;-60
2022/10/30 15:18:20;;;;;;;10.43;6.20;;;23.60;56.10;;;;;;6226404;28;20236;-60
2022/10/30 15:21:28;;;;;;;9.93;5.90;;;23.50;57.00;;;;;;6226597;28;20232;-60
2022/10/30 15:24:34;;;;;;;12.53;7.23;;;23.40;57.30;;;;;;6226978;28;20224;-60
2022/10/30 15:27:42;;;;;;;17.10;7.40;;;23.30;57.90;;;;;;6226625;28;20243;-60
2022/10/30 15:31:00;;;;;;;18.00;7.20;;;23.20;58.60;;;;;;6226717;28;20240;-60
2022/10/30 15:34:14;;;;;;;18.03;7.90;;;23.10;59.80;;;;;;6248757;28;20228;-60
2022/10/30 15:37:19;;;;;;;15.77;7.63;;;22.90;61.50;;;;;;6250504;28;20247;-60
2022/10/30 15:40:22;;;;;;;14.40;7.40;;;22.80;63.00;;;;;;6250498;28;20247;-60
2022/10/30 15:43:30;;;;;;;10.73;7.77;;;22.60;63.90;;;;;;6250971;28;20232;-60
2022/10/30 15:46:33;;;;;;;13.03;6.83;;;22.50;65.30;;;;;;6250283;28;20255;-60
2022/10/30 15:49:40;;;;;;;12.40;6.90;;;22.30;66.70;;;;;;6250542;28;20243;-61
2022/10/30 15:52:45;;;;;;;14.37;7.10;;;22.20;68.10;;;;;;6250196;28;20299;-61
2022/10/30 15:55:50;;;;;;;11.80;7.40;;;22.10;69.40;;;;;;6249940;28;20243;-62
2022/10/30 15:58:57;;;;;;;10.83;7.87;;;21.90;71.00;;;;;;6250366;28;20228;-60
2022/10/30 16:02:00;;;;;;;12.03;7.23;;;21.70;72.40;;;;;;6250340;28;20286;-61
2022/10/30 16:05:20;;;;;;;9.30;5.93;;;21.60;74.30;;;;;;6251351;28;20294;-61